Cote-Saint-Luc, Canada
Current Conditions -  °F | °C
As of 3:00 AM on Thursday 29 Jan 2015 (Local Time) from CYUL Reporting Station
Clear Clear  
Wind Chill: -6°   Ceiling: Unl
Heat Index:   Visibility: 15mi
Dew Point: -8°   Wind: 6mph
Humidity: 56%   Direction: 220°SW
Pressure: 30.31"   Gusts: NA
Location:  45.45°N, 73.67°W
Report Text: CYUL 290800Z 22005KT 15SM SKC M15/M22 A3031 RMK SLP266
Loading
Personal Weather Stations






























Interactive Weather Map New forecast layout! Learn more

10-Day Weather Forecast

Advertisements
Track Severe Weather on mobile